sensor_id;sensor_type;location;lat;lon;timestamp;temperature;humidity
75621;DHT22;64574;48.506;-2.750;2023-02-26T00:01:25;5.50;64.30
75621;DHT22;64574;48.506;-2.750;2023-02-26T00:03:52;5.60;64.00
75621;DHT22;64574;48.506;-2.750;2023-02-26T00:06:18;5.50;62.90
75621;DHT22;64574;48.506;-2.750;2023-02-26T00:08:44;5.60;62.80
75621;DHT22;64574;48.506;-2.750;2023-02-26T00:11:10;5.60;62.30
75621;DHT22;64574;48.506;-2.750;2023-02-26T00:13:37;5.50;61.80
75621;DHT22;64574;48.506;-2.750;2023-02-26T00:16:05;5.60;62.10
75621;DHT22;64574;48.506;-2.750;2023-02-26T00:18:35;5.60;63.40
75621;DHT22;64574;48.506;-2.750;2023-02-26T00:21:01;5.50;63.80
75621;DHT22;64574;48.506;-2.750;2023-02-26T00:23:26;5.50;64.50
75621;DHT22;64574;48.506;-2.750;2023-02-26T00:25:52;5.50;64.50
75621;DHT22;64574;48.506;-2.750;2023-02-26T00:28:18;5.50;63.70
75621;DHT22;64574;48.506;-2.750;2023-02-26T00:30:44;5.50;63.60
75621;DHT22;64574;48.506;-2.750;2023-02-26T00:33:10;5.50;63.50
75621;DHT22;64574;48.506;-2.750;2023-02-26T00:35:35;5.30;63.60
75621;DHT22;64574;48.506;-2.750;2023-02-26T00:38:08;5.50;63.50
75621;DHT22;64574;48.506;-2.750;2023-02-26T00:43:04;5.50;63.80
75621;DHT22;64574;48.506;-2.750;2023-02-26T00:45:30;5.40;63.70
75621;DHT22;64574;48.506;-2.750;2023-02-26T00:50:28;5.50;64.30
75621;DHT22;64574;48.506;-2.750;2023-02-26T00:55:25;5.40;64.70
75621;DHT22;64574;48.506;-2.750;2023-02-26T00:57:51;5.30;65.00
75621;DHT22;64574;48.506;-2.750;2023-02-26T01:00:17;5.30;64.60
75621;DHT22;64574;48.506;-2.750;2023-02-26T01:02:43;5.30;64.60
75621;DHT22;64574;48.506;-2.750;2023-02-26T01:05:10;5.30;64.60
75621;DHT22;64574;48.506;-2.750;2023-02-26T01:07:43;5.20;64.50
75621;DHT22;64574;48.506;-2.750;2023-02-26T01:10:12;5.30;64.30
75621;DHT22;64574;48.506;-2.750;2023-02-26T01:12:39;5.30;63.70
75621;DHT22;64574;48.506;-2.750;2023-02-26T01:15:05;5.30;63.80
75621;DHT22;64574;48.506;-2.750;2023-02-26T01:17:56;5.10;63.80
75621;DHT22;64574;48.506;-2.750;2023-02-26T01:20:39;5.10;63.90
75621;DHT22;64574;48.506;-2.750;2023-02-26T01:23:17;5.20;63.60
75621;DHT22;64574;48.506;-2.750;2023-02-26T01:26:27;5.10;63.40
75621;DHT22;64574;48.506;-2.750;2023-02-26T01:28:45;5.20;63.00
75621;DHT22;64574;48.506;-2.750;2023-02-26T01:34:20;5.00;61.90
75621;DHT22;64574;48.506;-2.750;2023-02-26T01:36:59;5.00;61.80
75621;DHT22;64574;48.506;-2.750;2023-02-26T01:39:44;5.00;61.30
75621;DHT22;64574;48.506;-2.750;2023-02-26T01:42:21;5.10;60.90
75621;DHT22;64574;48.506;-2.750;2023-02-26T01:45:16;5.00;60.90
75621;DHT22;64574;48.506;-2.750;2023-02-26T01:48:01;5.00;60.70
75621;DHT22;64574;48.506;-2.750;2023-02-26T01:50:28;5.00;61.00
75621;DHT22;64574;48.506;-2.750;2023-02-26T01:53:16;5.00;60.90
75621;DHT22;64574;48.506;-2.750;2023-02-26T01:55:45;5.00;61.20
75621;DHT22;64574;48.506;-2.750;2023-02-26T01:58:12;5.00;61.20
75621;DHT22;64574;48.506;-2.750;2023-02-26T02:00:38;5.00;61.50
75621;DHT22;64574;48.506;-2.750;2023-02-26T02:03:04;5.00;61.60
75621;DHT22;64574;48.506;-2.750;2023-02-26T02:08:13;5.00;61.60
75621;DHT22;64574;48.506;-2.750;2023-02-26T02:10:42;4.80;62.10
75621;DHT22;64574;48.506;-2.750;2023-02-26T02:16:05;5.00;61.90
75621;DHT22;64574;48.506;-2.750;2023-02-26T02:19:01;4.90;62.10
75621;DHT22;64574;48.506;-2.750;2023-02-26T02:31:04;4.90;62.40
75621;DHT22;64574;48.506;-2.750;2023-02-26T02:33:15;4.90;62.60
75621;DHT22;64574;48.506;-2.750;2023-02-26T02:35:51;4.80;62.60
75621;DHT22;64574;48.506;-2.750;2023-02-26T02:38:23;4.70;62.70
75621;DHT22;64574;48.506;-2.750;2023-02-26T02:41:03;4.70;62.80
75621;DHT22;64574;48.506;-2.750;2023-02-26T02:43:32;4.70;63.00
75621;DHT22;64574;48.506;-2.750;2023-02-26T02:46:08;4.80;62.70
75621;DHT22;64574;48.506;-2.750;2023-02-26T02:48:43;4.80;62.90
75621;DHT22;64574;48.506;-2.750;2023-02-26T02:51:21;4.70;63.30
75621;DHT22;64574;48.506;-2.750;2023-02-26T02:54:09;4.70;63.60
75621;DHT22;64574;48.506;-2.750;2023-02-26T02:56:47;4.70;63.50
75621;DHT22;64574;48.506;-2.750;2023-02-26T02:59:23;4.70;63.20
75621;DHT22;64574;48.506;-2.750;2023-02-26T03:01:59;4.70;63.30
75621;DHT22;64574;48.506;-2.750;2023-02-26T03:04:27;4.80;63.20
75621;DHT22;64574;48.506;-2.750;2023-02-26T03:06:52;4.70;63.10
75621;DHT22;64574;48.506;-2.750;2023-02-26T03:09:18;4.70;62.70
75621;DHT22;64574;48.506;-2.750;2023-02-26T03:11:44;4.60;62.70
75621;DHT22;64574;48.506;-2.750;2023-02-26T03:14:10;4.50;62.60
75621;DHT22;64574;48.506;-2.750;2023-02-26T03:22:12;4.60;61.50
75621;DHT22;64574;48.506;-2.750;2023-02-26T03:24:59;4.50;61.00
75621;DHT22;64574;48.506;-2.750;2023-02-26T03:32:40;4.50;60.50
75621;DHT22;64574;48.506;-2.750;2023-02-26T03:35:14;4.60;60.10
75621;DHT22;64574;48.506;-2.750;2023-02-26T03:37:49;4.50;60.10
75621;DHT22;64574;48.506;-2.750;2023-02-26T03:40:23;4.70;59.80
75621;DHT22;64574;48.506;-2.750;2023-02-26T03:42:57;4.70;59.60
75621;DHT22;64574;48.506;-2.750;2023-02-26T03:45:30;4.50;59.60
75621;DHT22;64574;48.506;-2.750;2023-02-26T03:47:58;4.50;59.60
75621;DHT22;64574;48.506;-2.750;2023-02-26T03:50:32;4.40;59.80
75621;DHT22;64574;48.506;-2.750;2023-02-26T03:53:01;4.50;59.70
75621;DHT22;64574;48.506;-2.750;2023-02-26T03:58:11;4.50;59.30
75621;DHT22;64574;48.506;-2.750;2023-02-26T04:00:39;4.40;59.50
75621;DHT22;64574;48.506;-2.750;2023-02-26T04:05:50;4.40;59.20
75621;DHT22;64574;48.506;-2.750;2023-02-26T04:08:17;4.50;59.10
75621;DHT22;64574;48.506;-2.750;2023-02-26T04:10:51;4.30;59.40
75621;DHT22;64574;48.506;-2.750;2023-02-26T04:13:17;4.30;59.30
75621;DHT22;64574;48.506;-2.750;2023-02-26T04:15:43;4.40;59.20
75621;DHT22;64574;48.506;-2.750;2023-02-26T04:18:08;4.30;59.20
75621;DHT22;64574;48.506;-2.750;2023-02-26T04:20:34;4.30;59.20
75621;DHT22;64574;48.506;-2.750;2023-02-26T04:22:59;4.30;59.30
75621;DHT22;64574;48.506;-2.750;2023-02-26T04:25:25;4.40;59.20
75621;DHT22;64574;48.506;-2.750;2023-02-26T04:27:51;4.30;59.30
75621;DHT22;64574;48.506;-2.750;2023-02-26T04:30:16;4.30;59.30
75621;DHT22;64574;48.506;-2.750;2023-02-26T04:32:42;4.30;59.30
75621;DHT22;64574;48.506;-2.750;2023-02-26T04:35:08;4.20;58.90
75621;DHT22;64574;48.506;-2.750;2023-02-26T04:37:33;4.20;58.70
75621;DHT22;64574;48.506;-2.750;2023-02-26T04:39:59;4.20;58.60
75621;DHT22;64574;48.506;-2.750;2023-02-26T04:42:25;4.00;57.60
75621;DHT22;64574;48.506;-2.750;2023-02-26T04:44:50;4.00;57.20
75621;DHT22;64574;48.506;-2.750;2023-02-26T04:47:16;4.00;56.90
75621;DHT22;64574;48.506;-2.750;2023-02-26T04:49:41;3.90;56.40
75621;DHT22;64574;48.506;-2.750;2023-02-26T04:52:07;3.90;56.30
75621;DHT22;64574;48.506;-2.750;2023-02-26T04:54:32;3.90;55.90
75621;DHT22;64574;48.506;-2.750;2023-02-26T04:56:58;4.00;55.70
75621;DHT22;64574;48.506;-2.750;2023-02-26T04:59:23;4.00;55.50
75621;DHT22;64574;48.506;-2.750;2023-02-26T05:01:49;4.00;55.30
75621;DHT22;64574;48.506;-2.750;2023-02-26T05:04:15;3.90;55.50
75621;DHT22;64574;48.506;-2.750;2023-02-26T05:06:40;3.90;55.30
75621;DHT22;64574;48.506;-2.750;2023-02-26T05:09:06;4.00;55.20
75621;DHT22;64574;48.506;-2.750;2023-02-26T05:11:32;4.00;55.00
75621;DHT22;64574;48.506;-2.750;2023-02-26T05:13:57;4.10;54.70
75621;DHT22;64574;48.506;-2.750;2023-02-26T05:16:23;3.90;54.90
75621;DHT22;64574;48.506;-2.750;2023-02-26T05:18:49;4.00;54.70
75621;DHT22;64574;48.506;-2.750;2023-02-26T05:21:15;4.00;54.60
75621;DHT22;64574;48.506;-2.750;2023-02-26T05:23:40;3.90;54.40
75621;DHT22;64574;48.506;-2.750;2023-02-26T05:26:06;3.90;54.70
75621;DHT22;64574;48.506;-2.750;2023-02-26T05:28:31;4.00;54.60
75621;DHT22;64574;48.506;-2.750;2023-02-26T05:30:58;4.00;54.70
75621;DHT22;64574;48.506;-2.750;2023-02-26T05:33:25;4.10;54.50
75621;DHT22;64574;48.506;-2.750;2023-02-26T05:35:50;3.90;54.70
75621;DHT22;64574;48.506;-2.750;2023-02-26T05:38:16;3.90;54.70
75621;DHT22;64574;48.506;-2.750;2023-02-26T05:40:42;3.90;54.80
75621;DHT22;64574;48.506;-2.750;2023-02-26T05:43:07;3.90;55.00
75621;DHT22;64574;48.506;-2.750;2023-02-26T05:45:33;3.90;55.00
75621;DHT22;64574;48.506;-2.750;2023-02-26T05:47:59;3.90;55.00
75621;DHT22;64574;48.506;-2.750;2023-02-26T05:50:25;3.90;55.00
75621;DHT22;64574;48.506;-2.750;2023-02-26T05:52:51;3.90;55.40
75621;DHT22;64574;48.506;-2.750;2023-02-26T05:55:17;3.90;55.30
75621;DHT22;64574;48.506;-2.750;2023-02-26T05:57:42;3.70;55.70
75621;DHT22;64574;48.506;-2.750;2023-02-26T06:00:09;3.90;55.50
75621;DHT22;64574;48.506;-2.750;2023-02-26T06:02:34;3.90;55.70
75621;DHT22;64574;48.506;-2.750;2023-02-26T06:05:00;3.80;55.80
75621;DHT22;64574;48.506;-2.750;2023-02-26T06:07:26;3.90;56.20
75621;DHT22;64574;48.506;-2.750;2023-02-26T06:09:52;3.90;56.20
75621;DHT22;64574;48.506;-2.750;2023-02-26T06:12:17;3.90;56.20
75621;DHT22;64574;48.506;-2.750;2023-02-26T06:14:43;3.90;56.40
75621;DHT22;64574;48.506;-2.750;2023-02-26T06:17:08;3.80;56.60
75621;DHT22;64574;48.506;-2.750;2023-02-26T06:19:34;3.80;56.80
75621;DHT22;64574;48.506;-2.750;2023-02-26T06:21:59;3.90;56.90
75621;DHT22;64574;48.506;-2.750;2023-02-26T06:24:25;3.90;56.80
75621;DHT22;64574;48.506;-2.750;2023-02-26T06:26:51;3.90;57.00
75621;DHT22;64574;48.506;-2.750;2023-02-26T06:29:17;3.90;57.10
75621;DHT22;64574;48.506;-2.750;2023-02-26T06:31:45;3.90;57.00
75621;DHT22;64574;48.506;-2.750;2023-02-26T06:34:11;3.90;57.30
75621;DHT22;64574;48.506;-2.750;2023-02-26T06:36:36;3.90;57.40
75621;DHT22;64574;48.506;-2.750;2023-02-26T06:39:02;3.90;57.40
75621;DHT22;64574;48.506;-2.750;2023-02-26T06:41:28;3.80;57.50
75621;DHT22;64574;48.506;-2.750;2023-02-26T06:43:53;3.80;57.70
75621;DHT22;64574;48.506;-2.750;2023-02-26T06:46:19;3.70;57.70
75621;DHT22;64574;48.506;-2.750;2023-02-26T06:48:45;3.70;57.80
75621;DHT22;64574;48.506;-2.750;2023-02-26T06:51:11;3.60;58.00
75621;DHT22;64574;48.506;-2.750;2023-02-26T06:53:36;3.70;58.10
75621;DHT22;64574;48.506;-2.750;2023-02-26T06:56:02;3.70;58.00
75621;DHT22;64574;48.506;-2.750;2023-02-26T06:58:27;3.70;58.00
75621;DHT22;64574;48.506;-2.750;2023-02-26T07:00:53;3.80;57.80
75621;DHT22;64574;48.506;-2.750;2023-02-26T07:03:19;3.80;57.80
75621;DHT22;64574;48.506;-2.750;2023-02-26T07:05:45;3.80;57.90
75621;DHT22;64574;48.506;-2.750;2023-02-26T07:08:11;3.90;57.80
75621;DHT22;64574;48.506;-2.750;2023-02-26T07:10:38;3.90;57.60
75621;DHT22;64574;48.506;-2.750;2023-02-26T07:13:04;4.00;57.60
75621;DHT22;64574;48.506;-2.750;2023-02-26T07:15:30;3.90;57.70
75621;DHT22;64574;48.506;-2.750;2023-02-26T07:17:56;3.90;57.60
75621;DHT22;64574;48.506;-2.750;2023-02-26T07:20:22;4.00;57.20
75621;DHT22;64574;48.506;-2.750;2023-02-26T07:22:48;4.10;56.80
75621;DHT22;64574;48.506;-2.750;2023-02-26T07:25:14;4.10;56.20
75621;DHT22;64574;48.506;-2.750;2023-02-26T07:27:40;4.00;55.30
75621;DHT22;64574;48.506;-2.750;2023-02-26T07:30:06;4.00;55.00
75621;DHT22;64574;48.506;-2.750;2023-02-26T07:32:33;4.00;54.20
75621;DHT22;64574;48.506;-2.750;2023-02-26T07:34:58;4.00;53.30
75621;DHT22;64574;48.506;-2.750;2023-02-26T07:37:24;4.00;52.80
75621;DHT22;64574;48.506;-2.750;2023-02-26T07:39:50;4.10;52.50
75621;DHT22;64574;48.506;-2.750;2023-02-26T07:42:15;4.10;51.90
75621;DHT22;64574;48.506;-2.750;2023-02-26T07:44:41;4.00;51.50
75621;DHT22;64574;48.506;-2.750;2023-02-26T07:47:07;4.10;50.90
75621;DHT22;64574;48.506;-2.750;2023-02-26T07:49:32;4.20;51.20
75621;DHT22;64574;48.506;-2.750;2023-02-26T07:51:59;4.20;50.80
75621;DHT22;64574;48.506;-2.750;2023-02-26T07:54:24;4.20;50.50
75621;DHT22;64574;48.506;-2.750;2023-02-26T07:56:50;4.30;50.50
75621;DHT22;64574;48.506;-2.750;2023-02-26T07:59:16;4.30;50.20
75621;DHT22;64574;48.506;-2.750;2023-02-26T08:01:42;4.20;49.80
75621;DHT22;64574;48.506;-2.750;2023-02-26T08:04:07;4.20;49.70
75621;DHT22;64574;48.506;-2.750;2023-02-26T08:06:33;4.30;49.60
75621;DHT22;64574;48.506;-2.750;2023-02-26T08:09:00;4.40;49.60
75621;DHT22;64574;48.506;-2.750;2023-02-26T08:11:25;4.40;49.80
75621;DHT22;64574;48.506;-2.750;2023-02-26T08:13:51;4.50;49.50
75621;DHT22;64574;48.506;-2.750;2023-02-26T08:16:17;4.40;49.70
75621;DHT22;64574;48.506;-2.750;2023-02-26T08:18:43;4.40;50.00
75621;DHT22;64574;48.506;-2.750;2023-02-26T08:21:08;4.50;50.00
75621;DHT22;64574;48.506;-2.750;2023-02-26T08:23:35;4.40;50.10
75621;DHT22;64574;48.506;-2.750;2023-02-26T08:26:06;4.50;50.10
75621;DHT22;64574;48.506;-2.750;2023-02-26T08:28:32;4.50;50.50
75621;DHT22;64574;48.506;-2.750;2023-02-26T08:30:59;4.50;50.70
75621;DHT22;64574;48.506;-2.750;2023-02-26T08:33:25;4.50;51.00
75621;DHT22;64574;48.506;-2.750;2023-02-26T08:35:51;4.60;51.10
75621;DHT22;64574;48.506;-2.750;2023-02-26T08:38:18;4.50;50.70
75621;DHT22;64574;48.506;-2.750;2023-02-26T08:40:44;4.50;51.00
75621;DHT22;64574;48.506;-2.750;2023-02-26T08:43:10;4.50;50.70
75621;DHT22;64574;48.506;-2.750;2023-02-26T08:45:37;4.50;50.40
75621;DHT22;64574;48.506;-2.750;2023-02-26T08:48:03;4.50;50.50
75621;DHT22;64574;48.506;-2.750;2023-02-26T08:50:28;4.50;50.10
75621;DHT22;64574;48.506;-2.750;2023-02-26T08:52:54;4.50;49.60
75621;DHT22;64574;48.506;-2.750;2023-02-26T08:55:20;4.50;49.50
75621;DHT22;64574;48.506;-2.750;2023-02-26T08:57:45;4.50;49.10
75621;DHT22;64574;48.506;-2.750;2023-02-26T09:00:11;4.50;48.90
75621;DHT22;64574;48.506;-2.750;2023-02-26T09:02:40;4.60;48.60
75621;DHT22;64574;48.506;-2.750;2023-02-26T09:05:06;4.70;48.20
75621;DHT22;64574;48.506;-2.750;2023-02-26T09:07:32;4.50;48.00
75621;DHT22;64574;48.506;-2.750;2023-02-26T09:09:57;4.60;47.90
75621;DHT22;64574;48.506;-2.750;2023-02-26T09:12:23;4.60;47.20
75621;DHT22;64574;48.506;-2.750;2023-02-26T09:14:49;4.50;47.30
75621;DHT22;64574;48.506;-2.750;2023-02-26T09:17:14;4.50;46.90
75621;DHT22;64574;48.506;-2.750;2023-02-26T09:19:40;4.40;46.80
75621;DHT22;64574;48.506;-2.750;2023-02-26T09:22:06;4.40;47.50
75621;DHT22;64574;48.506;-2.750;2023-02-26T09:24:32;4.50;47.50
75621;DHT22;64574;48.506;-2.750;2023-02-26T09:26:58;4.50;47.60
75621;DHT22;64574;48.506;-2.750;2023-02-26T09:29:25;4.60;47.80
75621;DHT22;64574;48.506;-2.750;2023-02-26T09:31:50;4.70;47.90
75621;DHT22;64574;48.506;-2.750;2023-02-26T09:34:16;4.70;47.60
75621;DHT22;64574;48.506;-2.750;2023-02-26T09:36:41;4.70;47.90
75621;DHT22;64574;48.506;-2.750;2023-02-26T09:39:08;4.70;48.30
75621;DHT22;64574;48.506;-2.750;2023-02-26T09:41:41;4.70;48.30
75621;DHT22;64574;48.506;-2.750;2023-02-26T09:52:30;4.70;49.10
75621;DHT22;64574;48.506;-2.750;2023-02-26T09:55:04;4.90;49.50
75621;DHT22;64574;48.506;-2.750;2023-02-26T09:57:36;4.80;49.60
75621;DHT22;64574;48.506;-2.750;2023-02-26T10:00:40;4.90;49.60
75621;DHT22;64574;48.506;-2.750;2023-02-26T10:05:44;5.00;49.70
75621;DHT22;64574;48.506;-2.750;2023-02-26T10:08:15;4.90;49.90
75621;DHT22;64574;48.506;-2.750;2023-02-26T10:10:49;4.90;50.00
75621;DHT22;64574;48.506;-2.750;2023-02-26T10:13:44;5.00;50.10
75621;DHT22;64574;48.506;-2.750;2023-02-26T10:16:21;5.10;50.00
75621;DHT22;64574;48.506;-2.750;2023-02-26T10:19:13;5.00;50.00
75621;DHT22;64574;48.506;-2.750;2023-02-26T10:21:46;5.00;50.50
75621;DHT22;64574;48.506;-2.750;2023-02-26T10:24:18;5.00;50.20
75621;DHT22;64574;48.506;-2.750;2023-02-26T10:26:50;5.10;50.30
75621;DHT22;64574;48.506;-2.750;2023-02-26T10:29:42;5.10;50.40
75621;DHT22;64574;48.506;-2.750;2023-02-26T10:32:29;5.30;50.50
75621;DHT22;64574;48.506;-2.750;2023-02-26T10:35:01;5.30;50.00
75621;DHT22;64574;48.506;-2.750;2023-02-26T10:37:45;5.00;50.40
75621;DHT22;64574;48.506;-2.750;2023-02-26T10:40:27;5.30;50.30
75621;DHT22;64574;48.506;-2.750;2023-02-26T10:50:56;5.50;49.30
75621;DHT22;64574;48.506;-2.750;2023-02-26T10:53:23;5.60;49.30
75621;DHT22;64574;48.506;-2.750;2023-02-26T10:56:02;5.60;48.80
75621;DHT22;64574;48.506;-2.750;2023-02-26T10:58:29;5.60;49.30
75621;DHT22;64574;48.506;-2.750;2023-02-26T11:00:55;5.70;49.50
75621;DHT22;64574;48.506;-2.750;2023-02-26T11:03:32;5.50;49.90
75621;DHT22;64574;48.506;-2.750;2023-02-26T11:06:00;5.60;50.50
75621;DHT22;64574;48.506;-2.750;2023-02-26T11:08:32;5.60;50.90
75621;DHT22;64574;48.506;-2.750;2023-02-26T11:11:00;5.70;51.10
75621;DHT22;64574;48.506;-2.750;2023-02-26T11:13:28;5.60;51.10
75621;DHT22;64574;48.506;-2.750;2023-02-26T11:16:01;5.80;51.20
75621;DHT22;64574;48.506;-2.750;2023-02-26T11:18:30;5.80;50.80
75621;DHT22;64574;48.506;-2.750;2023-02-26T11:21:03;5.90;50.60
75621;DHT22;64574;48.506;-2.750;2023-02-26T11:23:30;5.90;50.00
75621;DHT22;64574;48.506;-2.750;2023-02-26T11:26:02;5.90;49.70
75621;DHT22;64574;48.506;-2.750;2023-02-26T11:28:49;5.90;49.50
75621;DHT22;64574;48.506;-2.750;2023-02-26T11:31:21;5.80;49.50
75621;DHT22;64574;48.506;-2.750;2023-02-26T11:33:49;5.90;47.20
75621;DHT22;64574;48.506;-2.750;2023-02-26T11:36:20;5.80;46.70
75621;DHT22;64574;48.506;-2.750;2023-02-26T11:38:54;5.80;46.30
75621;DHT22;64574;48.506;-2.750;2023-02-26T11:41:22;6.00;47.00
75621;DHT22;64574;48.506;-2.750;2023-02-26T11:44:04;5.80;48.20
75621;DHT22;64574;48.506;-2.750;2023-02-26T11:46:40;5.80;49.10
75621;DHT22;64574;48.506;-2.750;2023-02-26T11:49:08;5.90;49.00
75621;DHT22;64574;48.506;-2.750;2023-02-26T11:51:34;5.80;49.70
75621;DHT22;64574;48.506;-2.750;2023-02-26T11:54:00;5.90;50.20
75621;DHT22;64574;48.506;-2.750;2023-02-26T11:56:59;6.10;50.30
75621;DHT22;64574;48.506;-2.750;2023-02-26T11:59:25;6.00;49.90
75621;DHT22;64574;48.506;-2.750;2023-02-26T12:01:52;6.10;50.50
75621;DHT22;64574;48.506;-2.750;2023-02-26T12:04:21;6.00;50.70
75621;DHT22;64574;48.506;-2.750;2023-02-26T12:06:51;6.00;51.30
75621;DHT22;64574;48.506;-2.750;2023-02-26T12:09:18;5.90;50.50
75621;DHT22;64574;48.506;-2.750;2023-02-26T12:17:51;5.90;53.40
75621;DHT22;64574;48.506;-2.750;2023-02-26T12:20:51;5.90;52.00
75621;DHT22;64574;48.506;-2.750;2023-02-26T12:26:31;5.90;54.70
75621;DHT22;64574;48.506;-2.750;2023-02-26T12:42:51;5.90;59.60
75621;DHT22;64574;48.506;-2.750;2023-02-26T12:59:23;5.60;57.80
75621;DHT22;64574;48.506;-2.750;2023-02-26T13:04:41;5.80;58.70
75621;DHT22;64574;48.506;-2.750;2023-02-26T13:10:00;5.70;58.50
75621;DHT22;64574;48.506;-2.750;2023-02-26T13:18:16;5.90;56.40
75621;DHT22;64574;48.506;-2.750;2023-02-26T13:20:56;5.80;56.60
75621;DHT22;64574;48.506;-2.750;2023-02-26T13:23:31;5.80;55.60
75621;DHT22;64574;48.506;-2.750;2023-02-26T13:26:03;5.80;55.20
75621;DHT22;64574;48.506;-2.750;2023-02-26T13:28:54;5.90;56.00
75621;DHT22;64574;48.506;-2.750;2023-02-26T13:31:37;5.90;56.50
75621;DHT22;64574;48.506;-2.750;2023-02-26T13:34:14;6.00;56.70
75621;DHT22;64574;48.506;-2.750;2023-02-26T13:36:41;5.90;55.30
75621;DHT22;64574;48.506;-2.750;2023-02-26T13:53:00;6.10;56.00
75621;DHT22;64574;48.506;-2.750;2023-02-26T13:55:46;6.00;51.40
75621;DHT22;64574;48.506;-2.750;2023-02-26T14:01:16;6.20;46.70
75621;DHT22;64574;48.506;-2.750;2023-02-26T14:03:51;6.20;46.30
75621;DHT22;64574;48.506;-2.750;2023-02-26T14:08:54;6.30;45.20
75621;DHT22;64574;48.506;-2.750;2023-02-26T14:12:22;6.40;44.80
75621;DHT22;64574;48.506;-2.750;2023-02-26T14:14:38;6.40;43.90
75621;DHT22;64574;48.506;-2.750;2023-02-26T14:24:44;6.40;45.70
75621;DHT22;64574;48.506;-2.750;2023-02-26T14:29:39;6.30;46.20
75621;DHT22;64574;48.506;-2.750;2023-02-26T14:34:40;6.30;45.60
75621;DHT22;64574;48.506;-2.750;2023-02-26T14:37:11;6.40;46.90
75621;DHT22;64574;48.506;-2.750;2023-02-26T14:39:46;6.30;45.60
75621;DHT22;64574;48.506;-2.750;2023-02-26T14:42:21;6.40;46.40
75621;DHT22;64574;48.506;-2.750;2023-02-26T14:44:50;6.40;45.90
75621;DHT22;64574;48.506;-2.750;2023-02-26T14:47:18;6.40;46.70
75621;DHT22;64574;48.506;-2.750;2023-02-26T14:49:46;6.50;47.20
75621;DHT22;64574;48.506;-2.750;2023-02-26T15:00:51;6.50;46.50
75621;DHT22;64574;48.506;-2.750;2023-02-26T15:14:34;6.40;46.50
75621;DHT22;64574;48.506;-2.750;2023-02-26T15:17:07;6.60;46.40
75621;DHT22;64574;48.506;-2.750;2023-02-26T15:24:57;6.40;48.30
75621;DHT22;64574;48.506;-2.750;2023-02-26T15:27:29;6.40;47.70
75621;DHT22;64574;48.506;-2.750;2023-02-26T15:29:56;6.40;48.00
75621;DHT22;64574;48.506;-2.750;2023-02-26T15:32:30;6.40;47.10
75621;DHT22;64574;48.506;-2.750;2023-02-26T15:35:19;6.50;47.40
75621;DHT22;64574;48.506;-2.750;2023-02-26T15:37:54;6.40;47.50
75621;DHT22;64574;48.506;-2.750;2023-02-26T15:40:23;6.40;47.00
75621;DHT22;64574;48.506;-2.750;2023-02-26T15:42:51;6.50;46.50
75621;DHT22;64574;48.506;-2.750;2023-02-26T15:45:47;6.40;47.10
75621;DHT22;64574;48.506;-2.750;2023-02-26T15:48:16;6.60;48.00
75621;DHT22;64574;48.506;-2.750;2023-02-26T15:50:47;6.60;48.80
75621;DHT22;64574;48.506;-2.750;2023-02-26T15:55:57;6.50;49.70
75621;DHT22;64574;48.506;-2.750;2023-02-26T15:58:38;6.60;48.60
75621;DHT22;64574;48.506;-2.750;2023-02-26T16:01:05;6.40;47.40
75621;DHT22;64574;48.506;-2.750;2023-02-26T16:03:36;6.20;46.90
75621;DHT22;64574;48.506;-2.750;2023-02-26T16:06:03;6.10;48.50
75621;DHT22;64574;48.506;-2.750;2023-02-26T16:08:34;6.00;48.50
75621;DHT22;64574;48.506;-2.750;2023-02-26T16:11:00;6.10;48.90
75621;DHT22;64574;48.506;-2.750;2023-02-26T16:13:32;6.20;48.80
75621;DHT22;64574;48.506;-2.750;2023-02-26T16:16:01;6.20;48.20
75621;DHT22;64574;48.506;-2.750;2023-02-26T16:18:30;6.10;48.00
75621;DHT22;64574;48.506;-2.750;2023-02-26T16:20:58;6.00;48.50
75621;DHT22;64574;48.506;-2.750;2023-02-26T16:23:47;6.00;50.10
75621;DHT22;64574;48.506;-2.750;2023-02-26T16:26:25;6.30;50.00
75621;DHT22;64574;48.506;-2.750;2023-02-26T16:28:56;6.20;49.90
75621;DHT22;64574;48.506;-2.750;2023-02-26T16:31:25;6.20;49.90
75621;DHT22;64574;48.506;-2.750;2023-02-26T16:36:19;6.10;50.30
75621;DHT22;64574;48.506;-2.750;2023-02-26T16:38:55;5.90;49.10
75621;DHT22;64574;48.506;-2.750;2023-02-26T16:41:27;5.80;49.70
75621;DHT22;64574;48.506;-2.750;2023-02-26T16:43:56;5.90;51.10
75621;DHT22;64574;48.506;-2.750;2023-02-26T16:46:42;5.80;52.50
75621;DHT22;64574;48.506;-2.750;2023-02-26T16:49:25;5.80;52.10
75621;DHT22;64574;48.506;-2.750;2023-02-26T16:51:51;5.80;51.80
75621;DHT22;64574;48.506;-2.750;2023-02-26T16:54:47;5.80;51.40
75621;DHT22;64574;48.506;-2.750;2023-02-26T16:57:21;5.80;51.80
75621;DHT22;64574;48.506;-2.750;2023-02-26T16:59:54;5.70;51.80
75621;DHT22;64574;48.506;-2.750;2023-02-26T17:02:23;5.70;52.20
75621;DHT22;64574;48.506;-2.750;2023-02-26T17:04:52;5.60;52.90
75621;DHT22;64574;48.506;-2.750;2023-02-26T17:07:45;5.70;53.40
75621;DHT22;64574;48.506;-2.750;2023-02-26T17:10:21;5.60;52.40
75621;DHT22;64574;48.506;-2.750;2023-02-26T17:13:09;5.60;52.90
75621;DHT22;64574;48.506;-2.750;2023-02-26T17:15:37;5.60;53.00
75621;DHT22;64574;48.506;-2.750;2023-02-26T17:18:03;5.50;52.40
75621;DHT22;64574;48.506;-2.750;2023-02-26T17:20:30;5.60;52.60
75621;DHT22;64574;48.506;-2.750;2023-02-26T17:22:57;5.50;52.00
75621;DHT22;64574;48.506;-2.750;2023-02-26T17:25:24;5.50;51.70
75621;DHT22;64574;48.506;-2.750;2023-02-26T17:27:53;5.50;52.60
75621;DHT22;64574;48.506;-2.750;2023-02-26T17:30:22;5.50;52.90
75621;DHT22;64574;48.506;-2.750;2023-02-26T17:32:54;5.50;53.80
75621;DHT22;64574;48.506;-2.750;2023-02-26T17:35:19;5.40;53.70
75621;DHT22;64574;48.506;-2.750;2023-02-26T17:37:45;5.50;53.90
75621;DHT22;64574;48.506;-2.750;2023-02-26T17:42:46;5.50;53.30
75621;DHT22;64574;48.506;-2.750;2023-02-26T17:45:12;5.40;52.70
75621;DHT22;64574;48.506;-2.750;2023-02-26T17:47:38;5.50;52.60
75621;DHT22;64574;48.506;-2.750;2023-02-26T17:52:39;5.40;52.30
75621;DHT22;64574;48.506;-2.750;2023-02-26T17:55:05;5.40;52.10
75621;DHT22;64574;48.506;-2.750;2023-02-26T17:57:31;5.30;52.40
75621;DHT22;64574;48.506;-2.750;2023-02-26T17:59:56;5.40;52.30
75621;DHT22;64574;48.506;-2.750;2023-02-26T18:02:23;5.30;52.60
75621;DHT22;64574;48.506;-2.750;2023-02-26T18:04:51;5.30;53.50
75621;DHT22;64574;48.506;-2.750;2023-02-26T18:07:18;5.50;54.50
75621;DHT22;64574;48.506;-2.750;2023-02-26T18:09:45;5.40;54.00
75621;DHT22;64574;48.506;-2.750;2023-02-26T18:12:16;5.30;53.90
75621;DHT22;64574;48.506;-2.750;2023-02-26T18:14:43;5.30;53.40
75621;DHT22;64574;48.506;-2.750;2023-02-26T18:17:18;5.40;54.10
75621;DHT22;64574;48.506;-2.750;2023-02-26T18:19:45;5.40;55.00
75621;DHT22;64574;48.506;-2.750;2023-02-26T18:22:14;5.40;55.20
75621;DHT22;64574;48.506;-2.750;2023-02-26T18:24:41;5.30;53.90
75621;DHT22;64574;48.506;-2.750;2023-02-26T18:27:15;5.30;53.70
75621;DHT22;64574;48.506;-2.750;2023-02-26T18:29:42;5.30;53.60
75621;DHT22;64574;48.506;-2.750;2023-02-26T18:32:15;5.30;53.20
75621;DHT22;64574;48.506;-2.750;2023-02-26T18:34:41;5.30;53.70
75621;DHT22;64574;48.506;-2.750;2023-02-26T18:37:15;5.30;54.40
75621;DHT22;64574;48.506;-2.750;2023-02-26T18:39:42;5.20;54.70
75621;DHT22;64574;48.506;-2.750;2023-02-26T18:42:25;5.30;54.60
75621;DHT22;64574;48.506;-2.750;2023-02-26T18:44:52;5.10;53.40